INFORMACIÓN METAR y TAF
METAR FOR EGKK
ADDS - METARS form results

(1134 UTC 10 August 2020)
Data provider http://aviationweather.gov/metar/data/
 
METAR text: EGKK 101120Z 15008KT 110V200 CAVOK 30/17 Q1014
Conditions at: EGKK (LONDON/GATWICK A, GB) observed 1120 UTC 10 August 2020
Temperature: 30.0°C (86°F)
Dewpoint: 17.0°C (63°F) [RH = 46%]
Pressure (altimeter): 29.94 inches Hg (1014.0 mb)
Winds: from the SSE (150 degrees) at 9 MPH (8 knots; 4.1 m/s)
Visibility: 6 or more miles (10+ km)
Ceiling: ceiling and visibility are OK
Clouds: unknown
Weather: no significant weather observed at this time

METAR text: EGKK 101050Z 14006KT 110V190 CAVOK 30/18 Q1014
Conditions at: EGKK (LONDON/GATWICK A, GB) observed 1050 UTC 10 August 2020
Temperature: 30.0°C (86°F)
Dewpoint: 18.0°C (64°F) [RH = 49%]
Pressure (altimeter): 29.94 inches Hg (1014.0 mb)
Winds: from the SE (140 degrees) at 7 MPH (6 knots; 3.1 m/s)
Visibility: 6 or more miles (10+ km)
Ceiling: ceiling and visibility are OK
Clouds: unknown
Weather: no significant weather observed at this time

Forecast for: EGKK (LONDON/GATWICK A, GB)
Text: TAF EGKK 101056Z 1012/1118 14007KT CAVOK
Forecast period: 1200 UTC 10 August 2020 to 1800 UTC 11 August 2020
Forecast type: FROM: standard forecast or significant change
Winds: from the SE (140 degrees) at 8 MPH (7 knots; 3.6 m/s)
Visibility: 6 or more miles (10+ km)
Ceiling: unknown
Clouds: missing
Weather: NSW  (no significant weather)
Text: PROB30
Forecast period: 2100 UTC 10 August 2020 to 1800 UTC 11 August 2020
Forecast type: TEMPORARY: The following changes expected for less than half the time period
Visibility: 4 miles (7 km)
Ceiling: unknown
Clouds: missing
Weather: SHRA  (rain showers)

MAPA DE AEROPUERTO

INFORMACIÓN DE PISTA
Pista 08L Longitud 8415 ft Ancho 148 ft
Elevación 195 ft Umbral desplazado 1053 ft Rumbo de pista 78
Pista 26R Longitud 8415 ft Ancho 148 ft
Elevación 195 ft Umbral desplazado 1366 ft Rumbo de pista 258
Pista 08R Longitud 10364 ft Ancho 148 ft
Elevación 196 ft Umbral desplazado 1288 ft Rumbo de pista 78
Pista 26L Longitud 10364 ft Ancho 148 ft
Elevación 196 ft Umbral desplazado 878 ft Rumbo de pista 258

FRECUANCIAS DEL AEROPUERTO
Tipo APP Nombre APP Frecuencia 126.825 MHZ
Tipo ATIS Nombre ATIS Frecuencia 136.525 MHZ
Tipo CLD Nombre CLNC DEL Frecuencia 121.95 MHZ
Tipo GND Nombre GND Frecuencia 121.8 MHZ
Tipo TWR Nombre TWR Frecuencia 124.225 MHZ

RADIO AYUDAS DEL AEROPUERTO
Tipo NDB Nombre Gatwick Frecuencia 338 KHZ
Tipo NDB Nombre Gatwick Frecuencia 365 KHZ